createdAt,value
2022-12-25T00:05:29.438Z,6.07
2022-12-25T00:11:31.170Z,6.55
2022-12-25T00:17:32.928Z,5.80
2022-12-25T00:23:35.636Z,8.45
2022-12-25T00:29:37.531Z,5.93
2022-12-25T00:35:39.252Z,6.00
2022-12-25T00:41:59.560Z,6.22
2022-12-25T00:48:01.478Z,5.85
2022-12-25T00:54:03.576Z,6.25
2022-12-25T01:00:05.757Z,5.63
2022-12-25T01:06:08.767Z,5.90
2022-12-25T01:12:10.536Z,6.15
2022-12-25T01:18:13.083Z,5.68
2022-12-25T01:24:14.912Z,4.72
2022-12-25T01:30:16.774Z,4.57
2022-12-25T01:36:21.195Z,4.80
2022-12-25T01:42:24.075Z,5.10
2022-12-25T01:48:38.053Z,4.80
2022-12-25T01:54:53.471Z,4.17
2022-12-25T02:00:55.363Z,4.43
2022-12-25T02:06:57.263Z,4.70
2022-12-25T02:13:00.004Z,4.80
2022-12-25T02:19:33.547Z,4.20
2022-12-25T02:25:57.831Z,4.57
2022-12-25T02:32:15.726Z,4.17
2022-12-25T02:38:23.958Z,4.18
2022-12-25T02:44:46.361Z,3.95
2022-12-25T02:51:07.160Z,4.13
2022-12-25T02:57:31.177Z,4.07
2022-12-25T03:03:55.382Z,4.47
2022-12-25T03:10:23.636Z,4.90
2022-12-25T03:16:43.872Z,5.25
2022-12-25T03:23:06.363Z,4.25
2022-12-25T03:29:08.086Z,4.53
2022-12-25T03:35:30.640Z,4.30
2022-12-25T03:42:01.297Z,4.03
2022-12-25T03:48:14.026Z,4.72
2022-12-25T03:54:39.944Z,4.25
2022-12-25T04:01:00.397Z,4.40
2022-12-25T04:07:20.797Z,4.30
2022-12-25T04:13:40.864Z,4.25
2022-12-25T04:20:01.283Z,5.30
2022-12-25T04:26:21.763Z,5.05
2022-12-25T04:32:42.023Z,4.90
2022-12-25T04:38:44.083Z,4.45
2022-12-25T04:44:45.826Z,4.18
2022-12-25T04:50:47.599Z,4.78
2022-12-25T04:56:49.476Z,4.65
2022-12-25T05:02:51.533Z,4.63
2022-12-25T05:08:53.548Z,4.53
2022-12-25T05:14:55.256Z,4.47
2022-12-25T05:20:56.937Z,4.43
2022-12-25T05:26:58.663Z,4.20
2022-12-25T05:33:00.533Z,4.13
2022-12-25T05:39:02.375Z,4.93
2022-12-25T05:45:04.426Z,4.55
2022-12-25T05:51:12.304Z,4.30
2022-12-25T05:57:14.069Z,4.25
2022-12-25T06:03:16.045Z,4.88
2022-12-25T06:09:17.857Z,4.30
2022-12-25T06:15:19.588Z,4.20
2022-12-25T06:21:21.360Z,4.80
2022-12-25T06:27:23.103Z,5.85
2022-12-25T06:33:24.884Z,4.47
2022-12-25T06:39:26.629Z,4.80
2022-12-25T06:45:28.495Z,4.85
2022-12-25T06:51:31.956Z,5.15
2022-12-25T06:57:33.680Z,5.90
2022-12-25T07:03:35.497Z,5.30
2022-12-25T07:09:39.131Z,4.55
2022-12-25T07:15:41.137Z,4.80
2022-12-25T07:21:42.926Z,4.65
2022-12-25T07:27:44.675Z,4.63
2022-12-25T07:33:46.542Z,4.88
2022-12-25T07:39:48.278Z,4.95
2022-12-25T07:45:58.794Z,4.63
2022-12-25T07:52:00.674Z,4.60
2022-12-25T07:58:02.434Z,4.78
2022-12-25T08:04:04.236Z,4.63
2022-12-25T08:10:06.683Z,4.47
2022-12-25T08:16:10.613Z,4.75
2022-12-25T08:22:12.411Z,4.87
2022-12-25T08:28:14.158Z,4.15
2022-12-25T08:34:15.977Z,4.10
2022-12-25T08:40:17.873Z,4.00
2022-12-25T08:46:19.911Z,4.60
2022-12-25T08:52:21.768Z,4.75
2022-12-25T08:58:23.487Z,4.18
2022-12-25T09:04:25.248Z,4.55
2022-12-25T09:10:26.982Z,4.28
2022-12-25T09:16:28.846Z,4.10
2022-12-25T09:22:30.597Z,4.80
2022-12-25T09:28:32.866Z,4.75
2022-12-25T09:34:35.339Z,4.68
2022-12-25T09:40:37.054Z,4.40
2022-12-25T09:46:44.746Z,4.93
2022-12-25T09:53:11.623Z,4.47
2022-12-25T09:59:23.032Z,4.57
2022-12-25T10:05:42.730Z,4.55
2022-12-25T10:12:11.784Z,4.50
2022-12-25T10:18:45.306Z,4.47
2022-12-25T10:24:51.453Z,4.13
2022-12-25T10:30:55.377Z,4.70
2022-12-25T10:36:59.228Z,5.67
2022-12-25T10:43:24.673Z,5.50
2022-12-25T10:49:31.845Z,5.95
2022-12-25T10:55:34.058Z,5.20
2022-12-25T11:01:36.206Z,6.47
2022-12-25T11:07:50.896Z,6.18
2022-12-25T11:13:56.196Z,6.80
2022-12-25T11:20:56.363Z,5.65
2022-12-25T11:27:04.384Z,6.63
2022-12-25T11:33:12.576Z,5.80
2022-12-25T11:39:35.231Z,6.97
2022-12-25T11:45:40.630Z,6.68
2022-12-25T11:51:46.238Z,6.10
2022-12-25T11:57:55.145Z,6.32
2022-12-25T12:03:59.672Z,6.63
2022-12-25T12:10:27.519Z,6.47
2022-12-25T12:16:29.933Z,6.70
2022-12-25T12:22:31.759Z,6.88
2022-12-25T12:28:44.866Z,6.97
2022-12-25T12:34:50.573Z,6.22
2022-12-25T12:40:58.510Z,6.15
2022-12-25T12:47:00.341Z,5.78
2022-12-25T12:53:23.415Z,5.55
2022-12-25T12:59:27.113Z,6.25
2022-12-25T13:05:36.293Z,6.10
2022-12-25T13:11:41.457Z,5.80
2022-12-25T13:17:45.317Z,6.50
2022-12-25T13:23:47.113Z,5.30
2022-12-25T13:29:48.836Z,5.35
2022-12-25T13:35:51.479Z,4.53
2022-12-25T13:42:06.633Z,5.50
2022-12-25T13:48:16.086Z,7.38
2022-12-25T13:54:19.080Z,7.13
2022-12-25T14:00:24.293Z,7.13
2022-12-25T14:06:28.958Z,5.70
2022-12-25T14:18:33.856Z,7.53
2022-12-25T14:24:35.693Z,5.03
2022-12-25T14:30:42.659Z,5.25
2022-12-25T14:36:44.548Z,4.47
2022-12-25T14:42:56.173Z,4.15
2022-12-25T14:49:09.826Z,4.85
2022-12-25T14:55:30.492Z,4.70
2022-12-25T15:01:38.830Z,4.45
2022-12-25T15:07:41.892Z,4.50
2022-12-25T15:13:43.644Z,4.60
2022-12-25T15:19:45.408Z,4.70
2022-12-25T15:25:51.123Z,4.40
2022-12-25T15:31:52.860Z,4.28
2022-12-25T15:37:54.654Z,4.32
2022-12-25T15:43:56.399Z,4.22
2022-12-25T15:49:58.180Z,4.88
2022-12-25T15:55:59.969Z,5.75
2022-12-25T16:02:02.325Z,5.68
2022-12-25T16:08:04.370Z,5.32
2022-12-25T16:14:06.434Z,6.45
2022-12-25T16:20:09.222Z,7.13
2022-12-25T16:26:11.018Z,7.45
2022-12-25T16:32:13.895Z,7.72
2022-12-25T16:38:15.639Z,8.27
2022-12-25T16:44:17.386Z,8.82
2022-12-25T16:50:19.141Z,8.88
2022-12-25T16:56:28.198Z,9.20
2022-12-25T17:02:30.314Z,9.10
2022-12-25T17:08:32.211Z,9.00
2022-12-25T17:14:35.070Z,8.95
2022-12-25T17:20:38.124Z,8.80
2022-12-25T17:26:41.550Z,8.40
2022-12-25T17:32:43.413Z,9.57
2022-12-25T17:38:46.509Z,8.45
2022-12-25T17:44:48.402Z,8.82
2022-12-25T17:50:50.176Z,8.45
2022-12-25T17:56:52.127Z,8.38
2022-12-25T18:02:54.036Z,7.97
2022-12-25T18:08:57.567Z,8.93
2022-12-25T18:14:59.774Z,8.95
2022-12-25T18:21:02.302Z,9.00
2022-12-25T18:27:04.121Z,9.25
2022-12-25T18:33:06.372Z,9.57
2022-12-25T18:39:08.227Z,10.25
2022-12-25T18:45:13.313Z,9.90
2022-12-25T18:51:15.237Z,10.07
2022-12-25T18:57:17.055Z,10.32
2022-12-25T19:03:18.917Z,10.93
2022-12-25T19:09:20.989Z,11.25
2022-12-25T19:15:22.796Z,11.00
2022-12-25T19:21:25.019Z,11.07
2022-12-25T19:27:26.892Z,10.77
2022-12-25T19:33:31.461Z,11.05
2022-12-25T19:45:35.494Z,11.15
2022-12-25T19:51:39.625Z,11.25
2022-12-25T19:57:41.325Z,11.45
2022-12-25T20:03:46.458Z,11.93
2022-12-25T20:09:48.736Z,12.07
2022-12-25T20:15:50.561Z,11.90
2022-12-25T20:21:54.129Z,11.85
2022-12-25T20:27:57.599Z,12.23
2022-12-25T20:34:04.923Z,12.68
2022-12-25T20:40:07.476Z,10.60
2022-12-25T20:46:09.355Z,11.25
2022-12-25T20:52:11.110Z,9.80
2022-12-25T20:58:14.021Z,10.48
2022-12-25T21:04:16.660Z,9.32
2022-12-25T21:10:18.609Z,9.70
2022-12-25T21:16:22.248Z,9.00
2022-12-25T21:22:24.208Z,8.80
2022-12-25T21:28:30.191Z,8.80
2022-12-25T21:34:32.051Z,7.80
2022-12-25T21:40:35.476Z,7.28
2022-12-25T21:46:37.317Z,7.32
2022-12-25T21:52:39.069Z,6.72
2022-12-25T21:58:40.840Z,7.07
2022-12-25T22:04:42.647Z,8.00
2022-12-25T22:10:44.454Z,8.02
2022-12-25T22:17:04.789Z,8.07
2022-12-25T22:23:06.537Z,8.80
2022-12-25T22:29:08.248Z,9.07
2022-12-25T22:35:12.248Z,9.98
2022-12-25T22:41:14.190Z,10.13
2022-12-25T22:47:15.941Z,10.32
2022-12-25T22:53:17.726Z,11.25
2022-12-25T22:59:21.834Z,11.40
2022-12-25T23:05:23.579Z,11.05
2022-12-25T23:11:25.590Z,10.88
2022-12-25T23:17:46.295Z,11.57
2022-12-25T23:24:06.567Z,12.95
2022-12-25T23:30:13.483Z,14.77
2022-12-25T23:36:15.705Z,16.50
2022-12-25T23:42:17.940Z,18.20
2022-12-25T23:48:19.726Z,19.40
2022-12-25T23:54:30.014Z,19.08
